Time,TemperatureF,DewpointF,PressureIn,WindDirection,WindDirectionDegrees,WindSpeedMPH,WindSpeedGustMPH,Humidity,HourlyPrecipIn,Conditions,Clouds,dailyrainin,SoftwareType,DateUTC
2013-03-18 00:03:00,34.4,24.9,29.88,SE,128,4.6,4.6,68,0.00,OVC,OVC,0.00,WeatherDisplay:10.37,2013-03-18 05:03:00,
2013-03-18 00:08:00,34.4,24.9,29.88,SE,140,5.0,5.0,68,0.00,OVC,OVC,0.00,WeatherDisplay:10.37,2013-03-18 05:08:00,
2013-03-18 00:14:00,34.4,24.9,29.88,SE,134,3.5,3.5,68,0.00,OVC,OVC,0.00,WeatherDisplay:10.37,2013-03-18 05:14:00,
2013-03-18 00:19:00,34.4,24.9,29.88,SE,134,5.8,5.8,68,0.00,OVC,OVC,0.00,WeatherDisplay:10.37,2013-03-18 05:19:00,
2013-03-18 00:24:00,34.4,25.3,29.88,SE,146,4.6,4.6,69,0.00,OVC,OVC,0.00,WeatherDisplay:10.37,2013-03-18 05:24:00,
2013-03-18 00:29:00,34.3,25.5,29.87,SE,134,10.4,10.4,70,0.00,OVC,OVC,0.00,WeatherDisplay:10.37,2013-03-18 05:29:00,
2013-03-18 00:35:00,34.1,25.7,29.87,SE,134,4.6,4.6,71,0.00,OVC,OVC,0.00,WeatherDisplay:10.37,2013-03-18 05:35:00,
2013-03-18 00:40:00,33.8,25.7,29.87,SE,140,3.5,3.5,72,0.00,OVC,OVC,0.00,WeatherDisplay:10.37,2013-03-18 05:40:00,
2013-03-18 00:45:00,33.7,26.0,29.86,SE,125,7.0,7.0,73,0.00,OVC,OVC,0.00,WeatherDisplay:10.37,2013-03-18 05:45:00,
2013-03-18 00:50:00,33.5,26.1,29.86,ESE,110,5.8,5.8,74,0.00,OVC,OVC,0.00,WeatherDisplay:10.37,2013-03-18 05:50:00,
2013-03-18 00:55:00,33.4,26.0,29.86,SE,143,3.5,3.5,74,0.00,OVC,OVC,0.00,WeatherDisplay:10.37,2013-03-18 05:55:00,
2013-03-18 01:01:00,33.3,26.2,29.86,South,173,11.0,11.0,75,0.00,,,0.00,WeatherDisplay:10.37,2013-03-18 06:01:00,
2013-03-18 01:06:00,33.1,26.4,29.86,SE,134,3.5,3.5,76,0.00,,,0.00,WeatherDisplay:10.37,2013-03-18 06:06:00,
2013-03-18 01:11:00,33.0,26.6,29.86,SE,134,2.3,2.3,77,0.00,,,0.00,WeatherDisplay:10.37,2013-03-18 06:11:00,
2013-03-18 01:16:00,32.9,26.5,29.86,SE,134,3.5,3.5,77,0.00,,,0.00,WeatherDisplay:10.37,2013-03-18 06:16:00,
2013-03-18 01:22:00,32.7,26.6,29.86,ESE,121,3.5,3.5,78,0.00,,,0.00,WeatherDisplay:10.37,2013-03-18 06:22:00,
2013-03-18 01:27:00,32.6,26.5,29.86,ESE,122,6.9,6.9,78,0.00,,,0.00,WeatherDisplay:10.37,2013-03-18 06:27:00,
2013-03-18 01:32:00,32.6,26.8,29.85,SE,128,2.3,2.3,79,0.00,,,0.00,WeatherDisplay:10.37,2013-03-18 06:32:00,
2013-03-18 01:37:00,32.5,26.7,29.85,SE,137,3.5,3.5,79,0.00,,,0.00,WeatherDisplay:10.37,2013-03-18 06:37:00,
2013-03-18 01:42:00,32.5,26.7,29.85,South,169,3.5,3.5,79,0.00,,,0.00,WeatherDisplay:10.37,2013-03-18 06:42:00,
2013-03-18 01:48:00,32.5,26.7,29.85,SE,135,3.0,3.0,79,0.00,,,0.00,WeatherDisplay:10.37,2013-03-18 06:48:00,
2013-03-18 01:53:00,32.5,27.0,29.85,SE,134,1.2,1.2,80,0.00,,,0.00,WeatherDisplay:10.37,2013-03-18 06:53:00,
2013-03-18 01:58:00,32.5,27.0,29.85,SSE,155,1.2,0.0,80,0.00,,,0.00,WeatherDisplay:10.37,2013-03-18 06:58:00,
2013-03-18 02:03:00,32.5,27.0,29.86,SSE,155,0.0,0.0,80,0.00,,,0.00,WeatherDisplay:10.37,2013-03-18 07:03:00,
2013-03-18 02:08:00,32.5,27.0,29.85,SSE,155,1.2,0.0,80,0.00,,,0.00,WeatherDisplay:10.37,2013-03-18 07:08:00,
2013-03-18 02:14:00,32.4,26.9,29.85,SSE,155,2.3,2.3,80,0.00,,,0.00,WeatherDisplay:10.37,2013-03-18 07:14:00,
2013-03-18 02:19:00,32.4,26.9,29.85,SSE,155,2.0,0.0,80,0.00,,,0.00,WeatherDisplay:10.37,2013-03-18 07:19:00,
2013-03-18 02:24:00,32.3,26.8,29.84,SSE,155,0.0,0.0,80,0.00,,,0.00,WeatherDisplay:10.37,2013-03-18 07:24:00,
2013-03-18 02:29:00,32.3,26.8,29.84,SSE,155,0.0,0.0,80,0.00,,,0.00,WeatherDisplay:10.37,2013-03-18 07:29:00,
2013-03-18 02:34:00,32.3,27.1,29.84,SSE,155,0.0,0.0,81,0.00,,,0.00,WeatherDisplay:10.37,2013-03-18 07:34:00,
2013-03-18 02:39:00,32.3,27.1,29.83,SSE,155,3.5,3.5,81,0.00,,,0.00,WeatherDisplay:10.37,2013-03-18 07:39:00,
2013-03-18 02:44:00,32.2,27.0,29.83,SSE,155,1.2,1.2,81,0.00,,,0.00,WeatherDisplay:10.37,2013-03-18 07:44:00,
2013-03-18 02:50:00,32.1,26.9,29.82,SE,128,3.5,3.5,81,0.00,,,0.00,WeatherDisplay:10.37,2013-03-18 07:50:00,
2013-03-18 02:55:00,32.0,26.8,29.81,SE,142,4.0,4.0,81,0.00,,,0.00,WeatherDisplay:10.37,2013-03-18 07:55:00,
2013-03-18 03:00:00,32.0,26.8,29.81,ESE,118,3.5,3.5,81,0.00,,,0.00,WeatherDisplay:10.37,2013-03-18 08:00:00,
2013-03-18 03:05:00,32.0,26.8,29.81,SE,140,2.0,0.0,81,0.00,,,0.00,WeatherDisplay:10.37,2013-03-18 08:05:00,
2013-03-18 03:11:00,32.0,26.8,29.81,ESE,119,2.3,2.3,81,0.00,,,0.00,WeatherDisplay:10.37,2013-03-18 08:11:00,
2013-03-18 03:16:00,32.0,26.8,29.81,ESE,119,2.3,2.3,81,0.00,,,0.00,WeatherDisplay:10.37,2013-03-18 08:16:00,
2013-03-18 03:21:00,32.0,26.8,29.81,SE,145,4.0,4.0,81,0.00,,,0.00,WeatherDisplay:10.37,2013-03-18 08:21:00,
2013-03-18 03:26:00,32.0,27.1,29.80,SE,132,3.5,3.5,82,0.00,,,0.00,WeatherDisplay:10.37,2013-03-18 08:26:00,
2013-03-18 03:31:00,32.0,27.1,29.80,SSE,148,3.0,3.0,82,0.00,,,0.00,WeatherDisplay:10.37,2013-03-18 08:31:00,
2013-03-18 03:37:00,32.0,27.1,29.81,SE,134,2.3,2.3,82,0.00,,,0.00,WeatherDisplay:10.37,2013-03-18 08:37:00,
2013-03-18 03:42:00,32.0,27.1,29.80,SE,134,0.0,0.1,82,0.00,,,0.00,WeatherDisplay:10.37,2013-03-18 08:42:00,
2013-03-18 03:47:00,32.0,27.1,29.80,SE,137,3.5,3.5,82,0.00,,,0.00,WeatherDisplay:10.37,2013-03-18 08:47:00,
2013-03-18 03:52:00,32.0,27.1,29.80,SSE,153,3.5,3.5,82,0.00,,,0.00,WeatherDisplay:10.37,2013-03-18 08:52:00,
2013-03-18 03:57:00,32.0,27.1,29.81,SSE,154,1.2,1.2,82,0.00,,,0.00,WeatherDisplay:10.37,2013-03-18 08:57:00,
2013-03-18 04:02:00,32.0,27.1,29.80,SSE,148,3.5,3.5,82,0.00,,,0.00,WeatherDisplay:10.37,2013-03-18 09:02:00,
2013-03-18 04:07:00,32.1,27.2,29.80,SE,139,3.5,3.5,82,0.00,,,0.00,WeatherDisplay:10.37,2013-03-18 09:07:00,
2013-03-18 04:12:00,32.1,27.2,29.80,SE,139,2.3,2.3,82,0.00,,,0.00,WeatherDisplay:10.37,2013-03-18 09:12:00,
2013-03-18 04:17:00,32.1,27.2,29.79,SE,138,2.3,2.3,82,0.00,,,0.00,WeatherDisplay:10.37,2013-03-18 09:17:00,
2013-03-18 04:22:00,32.1,27.2,29.79,SE,138,3.5,3.5,82,0.00,,,0.00,WeatherDisplay:10.37,2013-03-18 09:22:00,
2013-03-18 04:28:00,32.1,27.2,29.78,SE,144,3.5,3.5,82,0.00,,,0.00,WeatherDisplay:10.37,2013-03-18 09:28:00,
2013-03-18 04:33:00,32.0,27.1,29.78,SE,145,3.5,3.5,82,0.00,,,0.00,WeatherDisplay:10.37,2013-03-18 09:33:00,
2013-03-18 04:38:00,32.0,27.1,29.78,SSE,150,3.5,3.5,82,0.00,,,0.00,WeatherDisplay:10.37,2013-03-18 09:38:00,
2013-03-18 04:43:00,32.0,27.1,29.78,SE,124,3.5,3.5,82,0.00,,,0.00,WeatherDisplay:10.37,2013-03-18 09:43:00,
2013-03-18 04:49:00,32.0,27.1,29.78,SE,141,3.5,3.5,82,0.00,,,0.00,WeatherDisplay:10.37,2013-03-18 09:49:00,
2013-03-18 04:54:00,31.9,27.0,29.78,SE,144,3.5,3.5,82,0.00,,,0.00,WeatherDisplay:10.37,2013-03-18 09:54:00,
2013-03-18 04:59:00,32.0,27.1,29.78,SE,136,4.6,4.6,82,0.00,,,0.00,WeatherDisplay:10.37,2013-03-18 09:59:00,
2013-03-18 05:04:00,32.0,27.1,29.78,SSE,163,3.5,3.5,82,0.00,,,0.00,WeatherDisplay:10.37,2013-03-18 10:04:00,
2013-03-18 05:10:00,32.0,27.1,29.79,SE,143,4.6,4.6,82,0.00,,,0.00,WeatherDisplay:10.37,2013-03-18 10:10:00,
2013-03-18 05:15:00,32.0,27.1,29.79,SSE,154,2.3,2.3,82,0.00,,,0.00,WeatherDisplay:10.37,2013-03-18 10:15:00,
2013-03-18 05:20:00,32.0,27.1,29.80,SSE,156,3.5,0.0,82,0.00,,,0.00,WeatherDisplay:10.37,2013-03-18 10:20:00,
2013-03-18 05:25:00,32.0,27.1,29.80,SSE,154,0.0,0.0,82,0.00,,,0.00,WeatherDisplay:10.37,2013-03-18 10:25:00,
2013-03-18 05:30:00,32.0,27.1,29.80,SSE,154,0.0,0.0,82,0.00,,,0.00,WeatherDisplay:10.37,2013-03-18 10:30:00,
2013-03-18 05:36:00,32.0,27.1,29.80,SSE,154,0.0,0.0,82,0.00,,,0.00,WeatherDisplay:10.37,2013-03-18 10:36:00,
2013-03-18 05:41:00,32.0,27.1,29.79,SSE,154,2.3,2.3,82,0.00,,,0.00,WeatherDisplay:10.37,2013-03-18 10:41:00,
2013-03-18 05:47:00,32.0,27.1,29.79,SSE,154,0.0,0.0,82,0.00,,,0.00,WeatherDisplay:10.37,2013-03-18 10:47:00,
2013-03-18 05:52:00,32.0,27.4,29.79,SSE,154,0.0,0.0,83,0.00,,,0.00,WeatherDisplay:10.37,2013-03-18 10:52:00,
2013-03-18 05:57:00,31.9,27.3,29.79,SSE,154,0.0,0.0,83,0.00,,,0.00,WeatherDisplay:10.37,2013-03-18 10:57:00,
2013-03-18 06:03:00,31.9,27.3,29.79,SSE,154,0.0,0.0,83,0.00,,,0.00,WeatherDisplay:10.37,2013-03-18 11:03:00,
2013-03-18 06:08:00,31.9,27.3,29.78,SSE,154,0.0,0.0,83,0.00,,,0.00,WeatherDisplay:10.37,2013-03-18 11:08:00,
2013-03-18 06:13:00,31.9,27.3,29.79,SSE,154,0.0,0.0,83,0.00,,,0.00,WeatherDisplay:10.37,2013-03-18 11:13:00,
2013-03-18 06:18:00,31.9,27.3,29.78,SSE,154,0.0,0.0,83,0.00,,,0.00,WeatherDisplay:10.37,2013-03-18 11:18:00,
2013-03-18 06:24:00,31.9,27.3,29.78,SSE,154,0.0,0.0,83,0.00,,,0.00,WeatherDisplay:10.37,2013-03-18 11:24:00,
2013-03-18 06:29:00,31.9,27.3,29.78,SSE,154,0.0,0.0,83,0.00,,,0.00,WeatherDisplay:10.37,2013-03-18 11:29:00,
2013-03-18 06:34:00,31.9,27.3,29.78,SSE,154,0.0,0.0,83,0.00,,,0.00,WeatherDisplay:10.37,2013-03-18 11:34:00,
2013-03-18 06:39:00,31.9,27.3,29.78,SSE,154,0.0,0.0,83,0.00,,,0.00,WeatherDisplay:10.37,2013-03-18 11:39:00,
2013-03-18 06:44:00,31.9,27.3,29.79,SSE,154,0.0,0.0,83,0.00,,,0.00,WeatherDisplay:10.37,2013-03-18 11:44:00,
2013-03-18 06:50:00,31.9,27.3,29.78,SSE,154,0.0,0.0,83,0.00,,,0.00,WeatherDisplay:10.37,2013-03-18 11:50:00,
2013-03-18 06:55:00,32.0,27.4,29.78,SSE,154,0.0,0.0,83,0.00,,,0.00,WeatherDisplay:10.37,2013-03-18 11:55:00,
2013-03-18 07:00:00,32.0,27.4,29.78,SSE,154,0.0,0.0,83,0.00,,,0.00,WeatherDisplay:10.37,2013-03-18 12:00:00,
2013-03-18 07:05:00,32.0,27.4,29.78,SSE,154,0.0,0.0,83,0.00,,,0.00,WeatherDisplay:10.37,2013-03-18 12:05:00,
2013-03-18 07:11:00,32.0,27.4,29.78,SSE,154,0.0,0.0,83,0.00,,,0.00,WeatherDisplay:10.37,2013-03-18 12:11:00,
2013-03-18 07:16:00,32.0,27.4,29.77,SSE,154,0.0,0.0,83,0.00,,,0.00,WeatherDisplay:10.37,2013-03-18 12:16:00,
2013-03-18 07:21:00,32.0,27.4,29.78,SSE,154,0.0,0.0,83,0.00,,,0.00,WeatherDisplay:10.37,2013-03-18 12:21:00,
2013-03-18 07:27:00,32.1,27.5,29.77,SSE,155,0.0,0.0,83,0.00,,,0.00,WeatherDisplay:10.37,2013-03-18 12:27:00,
2013-03-18 07:32:00,32.1,27.5,29.78,SSE,156,0.0,0.0,83,0.00,,,0.00,WeatherDisplay:10.37,2013-03-18 12:32:00,
2013-03-18 07:37:00,32.1,27.5,29.77,SSE,156,0.0,0.0,83,0.00,,,0.00,WeatherDisplay:10.37,2013-03-18 12:37:00,
2013-03-18 07:42:00,32.2,27.6,29.77,SSE,156,0.0,0.0,83,0.00,,,0.00,WeatherDisplay:10.37,2013-03-18 12:42:00,
2013-03-18 07:47:00,32.3,27.7,29.77,SSE,156,0.0,0.0,83,0.00,,,0.00,WeatherDisplay:10.37,2013-03-18 12:47:00,
2013-03-18 07:52:00,32.3,27.7,29.78,SSE,156,0.0,0.0,83,0.00,,,0.00,WeatherDisplay:10.37,2013-03-18 12:52:00,
2013-03-18 07:57:00,32.4,27.8,29.78,South,178,0.0,0.0,83,0.00,,,0.00,WeatherDisplay:10.37,2013-03-18 12:57:00,
2013-03-18 08:02:00,32.5,27.9,29.77,South,178,0.0,0.0,83,0.00,,,0.00,WeatherDisplay:10.37,2013-03-18 13:02:00,
2013-03-18 08:08:00,32.5,27.9,29.77,SSE,164,0.0,0.0,83,0.00,,,0.00,WeatherDisplay:10.37,2013-03-18 13:08:00,
2013-03-18 08:13:00,32.6,28.3,29.77,SSE,164,0.0,0.0,84,0.00,,,0.00,WeatherDisplay:10.37,2013-03-18 13:13:00,
2013-03-18 08:18:00,32.7,28.4,29.77,SSE,164,0.0,0.0,84,0.00,,,0.00,WeatherDisplay:10.37,2013-03-18 13:18:00,
2013-03-18 08:23:00,32.9,28.3,29.77,SSE,164,0.0,0.0,83,0.00,,,0.00,WeatherDisplay:10.37,2013-03-18 13:23:00,
2013-03-18 08:29:00,33.0,28.4,29.77,SSE,165,0.0,0.0,83,0.00,,,0.00,WeatherDisplay:10.37,2013-03-18 13:29:00,
2013-03-18 08:34:00,33.1,28.8,29.77,South,190,0.0,0.0,84,0.00,,,0.00,WeatherDisplay:10.37,2013-03-18 13:34:00,
2013-03-18 08:39:00,33.2,28.9,29.77,WSW,244,0.0,0.0,84,0.00,,,0.00,WeatherDisplay:10.37,2013-03-18 13:39:00,
2013-03-18 08:44:00,33.2,28.9,29.77,SW,236,0.0,0.0,84,0.00,,,0.00,WeatherDisplay:10.37,2013-03-18 13:44:00,
2013-03-18 08:49:00,33.3,29.0,29.77,West,260,0.0,0.0,84,0.00,,,0.00,WeatherDisplay:10.37,2013-03-18 13:49:00,
2013-03-18 08:54:00,33.5,29.2,29.77,West,260,0.0,0.0,84,0.00,,,0.00,WeatherDisplay:10.37,2013-03-18 13:54:00,
2013-03-18 09:00:00,33.7,29.4,29.77,West,261,1.2,1.2,84,0.00,,,0.00,WeatherDisplay:10.37,2013-03-18 14:00:00,
2013-03-18 09:05:00,33.9,29.6,29.77,WSW,255,4.0,4.0,84,0.00,,,0.00,WeatherDisplay:10.37,2013-03-18 14:05:00,
2013-03-18 09:10:00,34.1,29.8,29.77,West,271,6.9,6.9,84,0.00,,,0.00,WeatherDisplay:10.37,2013-03-18 14:10:00,
2013-03-18 09:15:00,34.4,29.8,29.77,WSW,242,6.0,6.0,83,0.00,,,0.00,WeatherDisplay:10.37,2013-03-18 14:15:00,
2013-03-18 09:20:00,34.4,29.8,29.77,West,280,12.7,12.7,83,0.00,,,0.00,WeatherDisplay:10.37,2013-03-18 14:20:00,
2013-03-18 09:25:00,34.4,29.2,29.77,WNW,296,6.9,6.9,81,0.00,,,0.00,WeatherDisplay:10.37,2013-03-18 14:25:00,
2013-03-18 09:31:00,33.8,27.4,29.78,WNW,296,18.4,18.4,77,0.00,,,0.00,WeatherDisplay:10.37,2013-03-18 14:31:00,
2013-03-18 09:36:00,33.3,25.9,29.78,West,279,9.2,9.2,74,0.00,,,0.00,WeatherDisplay:10.37,2013-03-18 14:36:00,
2013-03-18 09:41:00,32.9,25.2,29.78,WNW,289,16.1,16.1,73,0.00,,,0.00,WeatherDisplay:10.37,2013-03-18 14:41:00,
2013-03-18 09:46:00,32.8,25.4,29.78,West,274,13.8,13.8,74,0.00,,,0.00,WeatherDisplay:10.37,2013-03-18 14:46:00,
2013-03-18 09:52:00,32.8,25.1,29.78,WSW,237,13.0,13.0,73,0.00,,,0.00,WeatherDisplay:10.37,2013-03-18 14:52:00,
2013-03-18 09:57:00,32.7,24.7,29.79,WNW,296,11.5,11.5,72,0.00,,,0.00,WeatherDisplay:10.37,2013-03-18 14:57:00,
2013-03-18 10:02:00,32.4,24.0,29.80,West,277,9.0,9.0,71,0.00,,,0.00,WeatherDisplay:10.37,2013-03-18 15:02:00,
2013-03-18 10:07:00,32.6,23.9,29.80,WSW,255,18.4,18.4,70,0.00,,,0.00,WeatherDisplay:10.37,2013-03-18 15:07:00,
2013-03-18 10:13:00,32.8,24.1,29.80,WNW,294,10.4,10.4,70,0.00,,,0.00,WeatherDisplay:10.37,2013-03-18 15:13:00,
2013-03-18 10:18:00,33.1,24.0,29.80,West,278,12.7,12.7,69,0.00,,,0.00,WeatherDisplay:10.37,2013-03-18 15:18:00,
2013-03-18 10:23:00,33.1,24.0,29.80,West,261,15.0,15.0,69,0.00,,,0.00,WeatherDisplay:10.37,2013-03-18 15:23:00,
2013-03-18 10:28:00,33.2,23.4,29.80,NNW,328,13.8,13.8,67,0.00,,,0.00,WeatherDisplay:10.37,2013-03-18 15:28:00,
2013-03-18 10:33:00,32.9,23.1,29.81,WNW,295,15.0,15.0,67,0.00,,,0.00,WeatherDisplay:10.37,2013-03-18 15:33:00,
2013-03-18 10:38:00,32.7,22.2,29.81,WNW,296,15.0,15.0,65,0.00,,,0.00,WeatherDisplay:10.37,2013-03-18 15:38:00,
2013-03-18 10:43:00,32.8,22.0,29.81,WSW,252,17.3,17.3,64,0.00,,,0.00,WeatherDisplay:10.37,2013-03-18 15:43:00,
2013-03-18 10:49:00,32.8,22.7,29.81,West,273,12.7,12.7,66,0.00,,,0.00,WeatherDisplay:10.37,2013-03-18 15:49:00,
2013-03-18 10:54:00,32.8,22.3,29.81,WNW,301,17.3,17.3,65,0.00,,,0.00,WeatherDisplay:10.37,2013-03-18 15:54:00,
2013-03-18 10:59:00,32.5,22.0,29.82,NW,304,16.0,16.0,65,0.00,OVC,OVC,0.00,WeatherDisplay:10.37,2013-03-18 15:59:00,
2013-03-18 11:04:00,32.3,22.2,29.82,WNW,293,15.0,15.0,66,0.00,OVC,OVC,0.00,WeatherDisplay:10.37,2013-03-18 16:04:00,
2013-03-18 11:10:00,32.0,21.2,29.82,NW,320,12.7,12.7,64,0.00,OVC,OVC,0.00,WeatherDisplay:10.37,2013-03-18 16:10:00,
2013-03-18 11:15:00,31.7,20.9,29.82,WNW,303,17.3,17.3,64,0.00,OVC,OVC,0.00,WeatherDisplay:10.37,2013-03-18 16:15:00,
2013-03-18 11:20:00,31.7,20.9,29.83,WNW,296,18.4,18.4,64,0.00,OVC,OVC,0.00,WeatherDisplay:10.37,2013-03-18 16:20:00,
2013-03-18 11:25:00,31.6,21.2,29.83,NNE,18,13.8,13.8,65,0.00,OVC,OVC,0.00,WeatherDisplay:10.37,2013-03-18 16:25:00,
2013-03-18 11:30:00,31.8,21.0,29.83,WNW,292,10.4,10.4,64,0.00,OVC,OVC,0.00,WeatherDisplay:10.37,2013-03-18 16:30:00,
2013-03-18 11:36:00,31.8,21.0,29.83,WNW,292,12.7,12.7,64,0.00,OVC,OVC,0.00,WeatherDisplay:10.37,2013-03-18 16:36:00,
2013-03-18 11:41:00,31.6,20.4,29.83,NNE,22,17.3,17.3,63,0.00,OVC,OVC,0.00,WeatherDisplay:10.37,2013-03-18 16:41:00,
2013-03-18 11:46:00,31.4,20.6,29.83,WNW,291,16.1,16.1,64,0.00,OVC,OVC,0.00,WeatherDisplay:10.37,2013-03-18 16:46:00,
2013-03-18 11:51:00,31.4,20.6,29.84,WNW,299,13.8,13.8,64,0.00,OVC,OVC,0.00,WeatherDisplay:10.37,2013-03-18 16:51:00,
2013-03-18 11:57:00,31.2,20.4,29.84,WNW,290,16.1,16.1,64,0.00,OVC,OVC,0.00,WeatherDisplay:10.37,2013-03-18 16:57:00,
2013-03-18 12:02:00,30.9,20.1,29.85,NW,306,12.7,12.7,64,0.00,OVC,OVC,0.00,WeatherDisplay:10.37,2013-03-18 17:02:00,
2013-03-18 12:07:00,30.8,20.0,29.85,WNW,289,23.0,23.0,64,0.00,OVC,OVC,0.00,WeatherDisplay:10.37,2013-03-18 17:07:00,
2013-03-18 12:12:00,30.6,18.7,29.85,WNW,300,13.8,13.8,61,0.00,OVC,OVC,0.00,WeatherDisplay:10.37,2013-03-18 17:12:00,
2013-03-18 12:17:00,30.4,18.2,29.85,WNW,289,18.4,18.4,60,0.00,OVC,OVC,0.00,WeatherDisplay:10.37,2013-03-18 17:17:00,
2013-03-18 12:22:00,30.6,18.7,29.85,NW,319,11.5,11.5,61,0.00,OVC,OVC,0.00,WeatherDisplay:10.37,2013-03-18 17:22:00,
2013-03-18 12:28:00,30.2,18.0,29.86,West,273,13.8,13.8,60,0.00,OVC,OVC,0.00,WeatherDisplay:10.37,2013-03-18 17:28:00,
2013-03-18 12:33:00,29.8,17.6,29.86,NW,322,18.4,18.4,60,0.00,OVC,OVC,0.00,WeatherDisplay:10.37,2013-03-18 17:33:00,
2013-03-18 12:38:00,30.0,18.5,29.86,WNW,290,19.6,19.6,62,0.00,OVC,OVC,0.00,WeatherDisplay:10.37,2013-03-18 17:38:00,
2013-03-18 12:43:00,30.3,19.2,29.86,NW,322,7.0,7.0,63,0.00,OVC,OVC,0.00,WeatherDisplay:10.37,2013-03-18 17:43:00,
2013-03-18 12:49:00,29.9,18.8,29.87,West,268,18.4,18.4,63,0.00,OVC,OVC,0.00,WeatherDisplay:10.37,2013-03-18 17:49:00,
2013-03-18 12:54:00,29.9,18.5,29.87,WNW,294,11.5,11.5,62,0.00,OVC,OVC,0.00,WeatherDisplay:10.37,2013-03-18 17:54:00,
2013-03-18 12:59:00,29.9,16.5,29.87,NW,310,20.7,20.7,57,0.00,OVC,OVC,0.00,WeatherDisplay:10.37,2013-03-18 17:59:00,
2013-03-18 13:04:00,30.1,17.5,29.87,WNW,286,21.0,21.0,59,0.00,OVC,OVC,0.00,WeatherDisplay:10.37,2013-03-18 18:04:00,
2013-03-18 13:09:00,30.0,17.0,29.88,WNW,290,11.5,11.5,58,0.00,OVC,OVC,0.00,WeatherDisplay:10.37,2013-03-18 18:09:00,
2013-03-18 13:14:00,29.8,16.0,29.88,WNW,288,20.7,20.7,56,0.00,OVC,OVC,0.00,WeatherDisplay:10.37,2013-03-18 18:14:00,
2013-03-18 13:20:00,29.1,16.1,29.88,West,262,16.1,16.1,58,0.00,OVC,OVC,0.00,WeatherDisplay:10.37,2013-03-18 18:20:00,
2013-03-18 13:25:00,29.0,15.7,29.89,WNW,289,18.4,18.4,57,0.00,OVC,OVC,0.00,WeatherDisplay:10.37,2013-03-18 18:25:00,
2013-03-18 13:30:00,29.4,15.6,29.88,WNW,286,23.0,23.0,56,0.00,OVC,OVC,0.00,WeatherDisplay:10.37,2013-03-18 18:30:00,
2013-03-18 13:35:00,30.1,17.1,29.89,NW,305,11.5,11.5,58,0.00,OVC,OVC,0.00,WeatherDisplay:10.37,2013-03-18 18:35:00,
2013-03-18 13:40:00,29.6,16.6,29.89,NW,304,19.6,19.6,58,0.00,OVC,OVC,0.00,WeatherDisplay:10.37,2013-03-18 18:40:00,
2013-03-18 13:45:00,29.1,15.3,29.89,West,281,18.4,18.4,56,0.00,OVC,OVC,0.00,WeatherDisplay:10.37,2013-03-18 18:45:00,
2013-03-18 13:50:00,29.1,16.1,29.89,NW,305,19.6,19.6,58,0.00,OVC,OVC,0.00,WeatherDisplay:10.37,2013-03-18 18:50:00,
2013-03-18 13:56:00,28.7,16.2,29.90,WNW,295,19.6,19.6,59,0.00,OVC,OVC,0.00,WeatherDisplay:10.37,2013-03-18 18:56:00,
2013-03-18 14:01:00,29.1,16.9,29.90,West,270,19.6,19.6,60,0.00,OVC,OVC,0.00,WeatherDisplay:10.37,2013-03-18 19:01:00,
2013-03-18 14:06:00,29.0,16.8,29.90,NNW,336,18.4,18.4,60,0.00,OVC,OVC,0.00,WeatherDisplay:10.37,2013-03-18 19:06:00,
2013-03-18 14:12:00,28.7,15.8,29.91,NW,305,21.0,21.0,58,0.00,OVC,OVC,0.00,WeatherDisplay:10.37,2013-03-18 19:12:00,
2013-03-18 14:17:00,28.4,15.9,29.90,West,281,9.2,9.2,59,0.00,OVC,OVC,0.00,WeatherDisplay:10.37,2013-03-18 19:17:00,
2013-03-18 14:22:00,28.9,16.7,29.91,WNW,302,13.8,13.8,60,0.00,OVC,OVC,0.00,WeatherDisplay:10.37,2013-03-18 19:22:00,
2013-03-18 14:27:00,29.0,16.1,29.90,WNW,300,15.0,15.0,58,0.00,OVC,OVC,0.00,WeatherDisplay:10.37,2013-03-18 19:27:00,
2013-03-18 14:32:00,28.7,15.0,29.91,West,278,17.3,17.3,56,0.00,OVC,OVC,0.00,WeatherDisplay:10.37,2013-03-18 19:32:00,
2013-03-18 14:37:00,28.4,13.9,29.91,WNW,283,21.9,21.9,54,0.00,OVC,OVC,0.00,WeatherDisplay:10.37,2013-03-18 19:37:00,
2013-03-18 14:42:00,28.6,14.5,29.91,WNW,286,13.8,13.8,55,0.00,OVC,OVC,0.00,WeatherDisplay:10.37,2013-03-18 19:42:00,
2013-03-18 14:48:00,28.1,13.1,29.91,WNW,299,17.3,17.3,53,0.00,OVC,OVC,0.00,WeatherDisplay:10.37,2013-03-18 19:48:00,
2013-03-18 14:53:00,28.0,14.3,29.91,West,279,21.0,21.0,56,0.00,OVC,OVC,0.00,WeatherDisplay:10.37,2013-03-18 19:53:00,
2013-03-18 14:58:00,27.9,13.0,29.92,West,279,23.0,23.0,53,0.00,OVC,OVC,0.00,WeatherDisplay:10.37,2013-03-18 19:58:00,
2013-03-18 15:03:00,27.9,13.8,29.92,WNW,296,13.8,13.8,55,0.00,OVC,OVC,0.00,WeatherDisplay:10.37,2013-03-18 20:03:00,
2013-03-18 15:09:00,27.6,13.9,29.92,North,360,12.7,12.7,56,0.00,OVC,OVC,0.00,WeatherDisplay:10.37,2013-03-18 20:09:00,
2013-03-18 15:14:00,27.8,13.7,29.92,WNW,283,17.3,17.3,55,0.00,OVC,OVC,0.00,WeatherDisplay:10.37,2013-03-18 20:14:00,
2013-03-18 15:19:00,28.4,14.3,29.92,NW,322,17.3,17.3,55,0.00,OVC,OVC,0.00,WeatherDisplay:10.37,2013-03-18 20:19:00,
2013-03-18 15:24:00,28.5,13.5,29.92,WNW,296,19.6,19.6,53,0.00,OVC,OVC,0.00,WeatherDisplay:10.37,2013-03-18 20:24:00,
2013-03-18 15:29:00,27.6,13.1,29.92,NW,317,19.6,19.6,54,0.00,OVC,OVC,0.00,WeatherDisplay:10.37,2013-03-18 20:29:00,
2013-03-18 15:35:00,27.9,14.6,29.92,WNW,291,15.0,15.0,57,0.00,OVC,OVC,0.00,WeatherDisplay:10.37,2013-03-18 20:35:00,
2013-03-18 15:40:00,27.7,14.0,29.92,WNW,283,21.9,21.9,56,0.00,OVC,OVC,0.00,WeatherDisplay:10.37,2013-03-18 20:40:00,
2013-03-18 15:45:00,27.3,14.1,29.93,West,267,19.6,19.6,57,0.00,OVC,OVC,0.00,WeatherDisplay:10.37,2013-03-18 20:45:00,
2013-03-18 15:50:00,27.5,14.2,29.93,WSW,257,18.4,18.4,57,0.00,OVC,OVC,0.00,WeatherDisplay:10.37,2013-03-18 20:50:00,
2013-03-18 15:56:00,27.4,12.9,29.93,WSW,257,16.1,16.1,54,0.00,OVC,OVC,0.00,WeatherDisplay:10.37,2013-03-18 20:56:00,
2013-03-18 16:01:00,27.4,14.5,29.93,NW,317,13.8,13.8,58,0.00,OVC,OVC,0.00,WeatherDisplay:10.37,2013-03-18 21:01:00,
2013-03-18 16:06:00,27.2,14.4,29.93,NW,317,19.6,19.6,58,0.00,OVC,OVC,0.00,WeatherDisplay:10.37,2013-03-18 21:06:00,
2013-03-18 16:11:00,27.5,14.6,29.93,WNW,285,12.7,12.7,58,0.00,OVC,OVC,0.00,WeatherDisplay:10.37,2013-03-18 21:11:00,
2013-03-18 16:16:00,27.3,14.5,29.94,WNW,295,12.7,12.7,58,0.00,OVC,OVC,0.00,WeatherDisplay:10.37,2013-03-18 21:16:00,
2013-03-18 16:21:00,27.1,13.5,29.94,WNW,296,19.6,19.6,56,0.00,OVC,OVC,0.00,WeatherDisplay:10.37,2013-03-18 21:21:00,
2013-03-18 16:27:00,26.7,12.7,29.95,WNW,301,13.8,13.8,55,0.00,OVC,OVC,0.00,WeatherDisplay:10.37,2013-03-18 21:27:00,
2013-03-18 16:32:00,27.1,13.1,29.94,WNW,287,19.6,19.6,55,0.00,OVC,OVC,0.00,WeatherDisplay:10.37,2013-03-18 21:32:00,
2013-03-18 16:37:00,26.8,13.2,29.95,West,277,18.0,18.0,56,0.00,OVC,OVC,0.00,WeatherDisplay:10.37,2013-03-18 21:37:00,
2013-03-18 16:42:00,26.7,12.7,29.95,WNW,294,17.3,17.3,55,0.00,OVC,OVC,0.00,WeatherDisplay:10.37,2013-03-18 21:42:00,
2013-03-18 16:47:00,26.9,13.3,29.95,WSW,257,8.1,8.1,56,0.00,OVC,OVC,0.00,WeatherDisplay:10.37,2013-03-18 21:47:00,
2013-03-18 16:52:00,26.8,12.8,29.95,WNW,284,17.3,17.3,55,0.00,OVC,OVC,0.00,WeatherDisplay:10.37,2013-03-18 21:52:00,
2013-03-18 16:57:00,26.7,12.7,29.95,WNW,286,11.5,11.5,55,0.00,OVC,OVC,0.00,WeatherDisplay:10.37,2013-03-18 21:57:00,
2013-03-18 17:02:00,26.6,12.2,29.95,NW,311,18.0,18.0,54,0.00,OVC,OVC,0.00,WeatherDisplay:10.37,2013-03-18 22:02:00,
2013-03-18 17:08:00,26.7,12.3,29.95,West,271,17.3,17.3,54,0.00,OVC,OVC,0.00,WeatherDisplay:10.37,2013-03-18 22:08:00,
2013-03-18 17:13:00,27.0,13.0,29.95,WNW,285,16.1,16.1,55,0.00,OVC,OVC,0.00,WeatherDisplay:10.37,2013-03-18 22:13:00,
2013-03-18 17:18:00,27.2,12.7,29.96,NW,321,15.0,15.0,54,0.00,OVC,OVC,0.00,WeatherDisplay:10.37,2013-03-18 22:18:00,
2013-03-18 17:23:00,26.9,12.0,29.96,WNW,295,23.0,23.0,53,0.00,OVC,OVC,0.00,WeatherDisplay:10.37,2013-03-18 22:23:00,
2013-03-18 17:28:00,26.6,13.0,29.97,West,263,17.0,17.0,56,0.00,OVC,OVC,0.00,WeatherDisplay:10.37,2013-03-18 22:28:00,
2013-03-18 17:33:00,26.6,13.4,29.97,WSW,255,19.6,19.6,57,0.00,OVC,OVC,0.00,WeatherDisplay:10.37,2013-03-18 22:33:00,
2013-03-18 17:39:00,26.6,14.2,29.97,WSW,258,16.1,16.1,59,0.00,OVC,OVC,0.00,WeatherDisplay:10.37,2013-03-18 22:39:00,
2013-03-18 17:44:00,26.7,13.9,29.97,West,277,12.7,12.7,58,0.00,OVC,OVC,0.00,WeatherDisplay:10.37,2013-03-18 22:44:00,
2013-03-18 17:49:00,26.7,13.1,29.97,WNW,297,11.5,11.5,56,0.00,OVC,OVC,0.00,WeatherDisplay:10.37,2013-03-18 22:49:00,
2013-03-18 17:54:00,26.6,12.2,29.97,NW,305,17.3,17.3,54,0.00,OVC,OVC,0.00,WeatherDisplay:10.37,2013-03-18 22:54:00,
2013-03-18 17:59:00,26.8,12.4,29.97,West,272,17.3,17.3,54,0.00,OVC,OVC,0.00,WeatherDisplay:10.37,2013-03-18 22:59:00,
2013-03-18 18:05:00,27.2,12.7,29.97,WNW,303,11.5,11.5,54,0.00,OVC,OVC,0.00,WeatherDisplay:10.37,2013-03-18 23:05:00,
2013-03-18 18:10:00,27.3,12.4,29.97,WNW,296,19.6,19.6,53,0.00,OVC,OVC,0.00,WeatherDisplay:10.37,2013-03-18 23:10:00,
2013-03-18 18:15:00,27.5,12.2,29.97,West,279,16.1,16.1,52,0.00,OVC,OVC,0.00,WeatherDisplay:10.37,2013-03-18 23:15:00,
2013-03-18 18:20:00,27.5,11.7,29.97,West,279,20.7,20.7,51,0.00,OVC,OVC,0.00,WeatherDisplay:10.37,2013-03-18 23:20:00,
2013-03-18 18:25:00,27.4,12.1,29.98,WNW,289,20.7,20.7,52,0.00,OVC,OVC,0.00,WeatherDisplay:10.37,2013-03-18 23:25:00,
2013-03-18 18:30:00,27.5,12.6,29.97,WNW,287,14.0,14.0,53,0.00,OVC,OVC,0.00,WeatherDisplay:10.37,2013-03-18 23:30:00,
2013-03-18 18:36:00,27.5,12.2,29.98,West,277,19.6,19.6,52,0.00,OVC,OVC,0.00,WeatherDisplay:10.37,2013-03-18 23:36:00,
2013-03-18 18:41:00,27.4,11.6,29.98,West,279,18.4,18.4,51,0.00,OVC,OVC,0.00,WeatherDisplay:10.37,2013-03-18 23:41:00,
2013-03-18 18:47:00,27.2,12.3,29.98,NW,306,15.0,15.0,53,0.00,OVC,OVC,0.00,WeatherDisplay:10.37,2013-03-18 23:47:00,
2013-03-18 18:52:00,27.0,12.1,29.98,West,281,18.4,18.4,53,0.00,OVC,OVC,0.00,WeatherDisplay:10.37,2013-03-18 23:52:00,
2013-03-18 18:57:00,26.9,12.5,29.98,NNW,340,20.7,20.7,54,0.00,OVC,OVC,0.00,WeatherDisplay:10.37,2013-03-18 23:57:00,
2013-03-18 19:03:00,26.9,13.3,29.98,NW,304,9.0,9.0,56,0.00,OVC,OVC,0.00,WeatherDisplay:10.37,2013-03-19 00:03:00,
2013-03-18 19:08:00,26.9,13.3,29.98,West,265,13.8,13.8,56,0.00,OVC,OVC,0.00,WeatherDisplay:10.37,2013-03-19 00:08:00,
2013-03-18 19:13:00,26.8,13.2,29.99,NNW,330,14.0,14.0,56,0.00,OVC,OVC,0.00,WeatherDisplay:10.37,2013-03-19 00:13:00,
2013-03-18 19:18:00,26.7,13.5,29.99,West,280,16.1,16.1,57,0.00,OVC,OVC,0.00,WeatherDisplay:10.37,2013-03-19 00:18:00,
2013-03-18 19:23:00,26.6,13.4,30.00,WNW,297,11.5,11.5,57,0.00,OVC,OVC,0.00,WeatherDisplay:10.37,2013-03-19 00:23:00,
2013-03-18 19:29:00,26.6,13.4,30.00,West,273,13.0,13.0,57,0.00,OVC,OVC,0.00,WeatherDisplay:10.37,2013-03-19 00:29:00,
2013-03-18 19:34:00,26.6,13.4,30.00,West,269,11.5,11.5,57,0.00,OVC,OVC,0.00,WeatherDisplay:10.37,2013-03-19 00:34:00,
2013-03-18 19:39:00,26.6,13.0,30.00,WNW,284,13.8,13.8,56,0.00,OVC,OVC,0.00,WeatherDisplay:10.37,2013-03-19 00:39:00,
2013-03-18 19:44:00,26.5,13.3,30.00,WNW,293,9.2,9.2,57,0.00,OVC,OVC,0.00,WeatherDisplay:10.37,2013-03-19 00:44:00,
2013-03-18 19:50:00,26.4,13.6,30.00,WNW,296,9.0,9.0,58,0.00,OVC,OVC,0.00,WeatherDisplay:10.37,2013-03-19 00:50:00,
2013-03-18 19:55:00,26.3,13.9,30.00,WNW,283,5.8,5.8,59,0.00,OVC,OVC,0.00,WeatherDisplay:10.37,2013-03-19 00:55:00,
2013-03-18 20:00:00,26.2,13.8,30.00,WNW,301,6.9,6.9,59,0.00,CLR,CLR,0.00,WeatherDisplay:10.37,2013-03-19 01:00:00,
2013-03-18 20:05:00,26.2,14.2,30.00,WNW,288,5.8,5.8,60,0.00,CLR,CLR,0.00,WeatherDisplay:10.37,2013-03-19 01:05:00,
2013-03-18 20:10:00,26.2,13.8,30.01,WNW,286,10.4,10.4,59,0.00,CLR,CLR,0.00,WeatherDisplay:10.37,2013-03-19 01:10:00,
2013-03-18 20:15:00,26.2,13.8,30.01,West,273,11.5,11.5,59,0.00,CLR,CLR,0.00,WeatherDisplay:10.37,2013-03-19 01:15:00,
2013-03-18 20:20:00,26.2,13.8,30.01,West,281,9.2,9.2,59,0.00,CLR,CLR,0.00,WeatherDisplay:10.37,2013-03-19 01:20:00,
2013-03-18 20:25:00,26.2,13.8,30.01,West,273,11.5,11.5,59,0.00,CLR,CLR,0.00,WeatherDisplay:10.37,2013-03-19 01:25:00,
2013-03-18 20:30:00,26.1,14.1,30.01,NW,312,10.4,10.4,60,0.00,CLR,CLR,0.00,WeatherDisplay:10.37,2013-03-19 01:30:00,
2013-03-18 20:36:00,26.0,14.0,30.01,West,264,11.5,11.5,60,0.00,CLR,CLR,0.00,WeatherDisplay:10.37,2013-03-19 01:36:00,
2013-03-18 20:41:00,26.0,14.0,30.01,West,275,9.2,9.2,60,0.00,CLR,CLR,0.00,WeatherDisplay:10.37,2013-03-19 01:41:00,
2013-03-18 20:46:00,26.0,14.0,30.01,WNW,290,11.5,11.5,60,0.00,CLR,CLR,0.00,WeatherDisplay:10.37,2013-03-19 01:46:00,
2013-03-18 20:51:00,26.0,14.0,30.02,West,281,13.8,13.8,60,0.00,CLR,CLR,0.00,WeatherDisplay:10.37,2013-03-19 01:51:00,
2013-03-18 20:57:00,26.1,14.1,30.02,WNW,289,9.2,9.2,60,0.00,CLR,CLR,0.00,WeatherDisplay:10.37,2013-03-19 01:57:00,
2013-03-18 21:02:00,26.0,14.0,30.02,West,269,12.7,12.7,60,0.00,CLR,CLR,0.00,WeatherDisplay:10.37,2013-03-19 02:02:00,
2013-03-18 21:07:00,26.1,14.1,30.02,West,277,12.7,12.7,60,0.00,CLR,CLR,0.00,WeatherDisplay:10.37,2013-03-19 02:07:00,
2013-03-18 21:13:00,26.1,14.1,30.03,West,279,11.5,11.5,60,0.00,CLR,CLR,0.00,WeatherDisplay:10.37,2013-03-19 02:13:00,
2013-03-18 21:18:00,26.1,14.1,30.03,NNW,340,9.2,9.2,60,0.00,CLR,CLR,0.00,WeatherDisplay:10.37,2013-03-19 02:18:00,
2013-03-18 21:23:00,26.0,14.0,30.03,NW,309,10.4,10.4,60,0.00,CLR,CLR,0.00,WeatherDisplay:10.37,2013-03-19 02:23:00,
2013-03-18 21:28:00,25.9,13.9,30.03,WNW,302,16.1,16.1,60,0.00,CLR,CLR,0.00,WeatherDisplay:10.37,2013-03-19 02:28:00,
2013-03-18 21:33:00,25.7,13.7,30.03,WNW,299,11.5,11.5,60,0.00,CLR,CLR,0.00,WeatherDisplay:10.37,2013-03-19 02:33:00,
2013-03-18 21:39:00,25.6,13.2,30.04,NW,313,14.0,14.0,59,0.00,CLR,CLR,0.00,WeatherDisplay:10.37,2013-03-19 02:39:00,
2013-03-18 21:44:00,25.5,13.1,30.04,NNW,332,10.4,10.4,59,0.00,CLR,CLR,0.00,WeatherDisplay:10.37,2013-03-19 02:44:00,
2013-03-18 21:49:00,25.4,13.4,30.04,WNW,294,5.0,5.0,60,0.00,CLR,CLR,0.00,WeatherDisplay:10.37,2013-03-19 02:49:00,
2013-03-18 21:54:00,25.3,13.3,30.04,WNW,282,5.8,5.8,60,0.00,CLR,CLR,0.00,WeatherDisplay:10.37,2013-03-19 02:54:00,
2013-03-18 22:00:00,25.1,13.5,30.05,NW,307,5.8,5.8,61,0.00,CLR,CLR,0.00,WeatherDisplay:10.37,2013-03-19 03:00:00,
2013-03-18 22:05:00,24.9,13.7,30.05,WNW,287,3.5,3.5,62,0.00,CLR,CLR,0.00,WeatherDisplay:10.37,2013-03-19 03:05:00,
2013-03-18 22:10:00,24.5,13.7,30.05,WNW,282,3.5,3.5,63,0.00,CLR,CLR,0.00,WeatherDisplay:10.37,2013-03-19 03:10:00,
2013-03-18 22:15:00,24.4,13.6,30.06,WNW,288,4.6,4.6,63,0.00,CLR,CLR,0.00,WeatherDisplay:10.37,2013-03-19 03:15:00,
2013-03-18 22:20:00,24.3,13.5,30.06,WNW,290,2.3,2.7,63,0.00,CLR,CLR,0.00,WeatherDisplay:10.37,2013-03-19 03:20:00,
2013-03-18 22:26:00,24.3,13.5,30.06,NW,304,11.5,11.5,63,0.00,CLR,CLR,0.00,WeatherDisplay:10.37,2013-03-19 03:26:00,
2013-03-18 22:31:00,24.3,13.5,30.06,WNW,296,9.2,9.2,63,0.00,CLR,CLR,0.00,WeatherDisplay:10.37,2013-03-19 03:31:00,
2013-03-18 22:36:00,24.2,13.4,30.06,WNW,290,3.5,3.5,63,0.00,CLR,CLR,0.00,WeatherDisplay:10.37,2013-03-19 03:36:00,
2013-03-18 22:41:00,24.0,13.2,30.06,WNW,301,10.4,10.4,63,0.00,CLR,CLR,0.00,WeatherDisplay:10.37,2013-03-19 03:41:00,
2013-03-18 22:47:00,24.0,12.9,30.06,WNW,288,8.0,8.0,62,0.00,CLR,CLR,0.00,WeatherDisplay:10.37,2013-03-19 03:47:00,
2013-03-18 22:52:00,23.8,12.3,30.06,NW,313,8.1,8.1,61,0.00,CLR,CLR,0.00,WeatherDisplay:10.37,2013-03-19 03:52:00,
2013-03-18 22:57:00,23.6,12.1,30.06,NW,321,11.5,11.5,61,0.00,CLR,CLR,0.00,WeatherDisplay:10.37,2013-03-19 03:57:00,
2013-03-18 23:00:00,23.5,12.0,30.06,West,281,6.9,6.9,61,0.00,CLR,CLR,0.00,WeatherDisplay:10.37,2013-03-19 04:00:00,
2013-03-18 23:01:00,23.5,12.0,30.06,WNW,284,6.9,6.9,61,0.00,CLR,CLR,0.00,WeatherDisplay:10.37,2013-03-19 04:01:00,
2013-03-18 23:02:00,23.4,11.9,30.06,WNW,298,5.0,5.0,61,0.00,CLR,CLR,0.00,WeatherDisplay:10.37,2013-03-19 04:02:00,
2013-03-18 23:03:00,23.4,11.9,30.06,West,278,4.6,4.6,61,0.00,CLR,CLR,0.00,WeatherDisplay:10.37,2013-03-19 04:03:00,
2013-03-18 23:08:00,23.2,11.7,30.06,WNW,297,5.8,5.8,61,0.00,CLR,CLR,0.00,WeatherDisplay:10.37,2013-03-19 04:08:00,
2013-03-18 23:13:00,23.1,11.6,30.06,NW,306,5.8,5.8,61,0.00,CLR,CLR,0.00,WeatherDisplay:10.37,2013-03-19 04:13:00,
2013-03-18 23:18:00,22.9,11.4,30.05,North,355,7.0,7.0,61,0.00,CLR,CLR,0.00,WeatherDisplay:10.37,2013-03-19 04:18:00,
2013-03-18 23:23:00,22.9,11.4,30.05,NNW,331,6.9,6.9,61,0.00,CLR,CLR,0.00,WeatherDisplay:10.37,2013-03-19 04:23:00,
2013-03-18 23:28:00,22.8,11.3,30.05,West,269,6.9,6.9,61,0.00,CLR,CLR,0.00,WeatherDisplay:10.37,2013-03-19 04:28:00,
2013-03-18 23:34:00,22.7,10.9,30.05,NW,325,5.8,5.8,60,0.00,CLR,CLR,0.00,WeatherDisplay:10.37,2013-03-19 04:34:00,
2013-03-18 23:39:00,22.6,11.2,30.04,WNW,299,5.8,5.8,61,0.00,CLR,CLR,0.00,WeatherDisplay:10.37,2013-03-19 04:39:00,
2013-03-18 23:44:00,22.5,11.1,30.03,NNW,338,9.2,9.2,61,0.00,CLR,CLR,0.00,WeatherDisplay:10.37,2013-03-19 04:44:00,
2013-03-18 23:49:00,22.4,10.6,30.04,NW,304,10.4,10.4,60,0.00,CLR,CLR,0.00,WeatherDisplay:10.37,2013-03-19 04:49:00,
2013-03-18 23:54:00,22.4,10.6,30.05,WNW,286,6.9,6.9,60,0.00,CLR,CLR,0.00,WeatherDisplay:10.37,2013-03-19 04:54:00,